createdAt,value
2018-05-03T00:00:10.675Z,11.70
2018-05-03T00:02:38.124Z,11.60
2018-05-03T00:05:05.568Z,11.50
2018-05-03T00:07:33.785Z,11.50
2018-05-03T00:10:01.232Z,11.50
2018-05-03T00:12:28.667Z,11.60
2018-05-03T00:14:56.143Z,11.60
2018-05-03T00:17:24.327Z,11.50
2018-05-03T00:19:51.770Z,11.50
2018-05-03T00:22:19.233Z,11.50
2018-05-03T00:24:46.675Z,11.50
2018-05-03T00:27:14.120Z,11.50
2018-05-03T00:29:41.574Z,11.50
2018-05-03T00:32:09.796Z,11.50
2018-05-03T00:34:37.238Z,11.50
2018-05-03T00:37:04.696Z,11.50
2018-05-03T00:39:32.135Z,11.50
2018-05-03T00:41:59.585Z,11.40
2018-05-03T00:44:27.024Z,11.50
2018-05-03T00:46:55.247Z,11.40
2018-05-03T00:49:22.699Z,11.40
2018-05-03T00:51:50.159Z,11.40
2018-05-03T00:54:29.407Z,11.40
2018-05-03T00:56:56.879Z,11.40
2018-05-03T00:59:24.331Z,11.40
2018-05-03T01:01:51.765Z,11.40
2018-05-03T01:04:19.224Z,11.40
2018-05-03T01:06:46.666Z,11.40
2018-05-03T01:09:14.112Z,11.50
2018-05-03T01:11:41.566Z,11.40
2018-05-03T01:14:09.011Z,11.30
2018-05-03T01:16:37.239Z,11.40
2018-05-03T01:19:04.703Z,11.40
2018-05-03T01:21:32.144Z,11.50
2018-05-03T01:23:59.599Z,11.50
2018-05-03T01:26:27.045Z,11.40
2018-05-03T01:28:54.500Z,11.30
2018-05-03T01:31:21.948Z,11.30
2018-05-03T01:33:49.403Z,11.30
2018-05-03T01:36:25.663Z,11.30
2018-05-03T01:38:53.128Z,11.30
2018-05-03T01:41:20.574Z,11.40
2018-05-03T01:43:48.784Z,11.50
2018-05-03T01:46:16.229Z,11.50
2018-05-03T01:48:43.688Z,11.50
2018-05-03T01:51:11.137Z,11.40
2018-05-03T01:53:38.598Z,11.40
2018-05-03T01:56:06.034Z,11.40
2018-05-03T01:58:34.254Z,11.30
2018-05-03T02:01:01.701Z,11.30
2018-05-03T02:03:29.177Z,11.40
2018-05-03T02:05:56.613Z,11.30
2018-05-03T02:08:24.060Z,11.30
2018-05-03T02:10:51.503Z,11.30
2018-05-03T02:13:18.960Z,11.30
2018-05-03T02:15:46.409Z,11.30
2018-05-03T02:18:14.616Z,11.30
2018-05-03T02:20:42.068Z,11.30
2018-05-03T02:23:09.519Z,11.40
2018-05-03T02:25:36.965Z,11.40
2018-05-03T02:28:04.416Z,11.40
2018-05-03T02:30:31.874Z,11.30
2018-05-03T02:33:00.088Z,11.20
2018-05-03T02:35:27.544Z,11.20
2018-05-03T02:37:54.992Z,11.20
2018-05-03T02:40:22.444Z,11.20
2018-05-03T02:42:49.889Z,11.20
2018-05-03T02:45:17.349Z,11.20
2018-05-03T02:47:44.791Z,11.20
2018-05-03T02:50:12.267Z,11.20
2018-05-03T02:52:39.703Z,11.30
2018-05-03T02:55:07.173Z,11.30
2018-05-03T02:57:52.341Z,11.30
2018-05-03T03:00:37.453Z,11.20
2018-05-03T03:03:22.681Z,11.10
2018-05-03T03:06:07.766Z,11.20
2018-05-03T03:12:26.558Z,11.20
2018-05-03T03:15:11.588Z,11.10
2018-05-03T03:17:57.535Z,11.10
2018-05-03T03:20:54.373Z,11.20
2018-05-03T03:23:39.562Z,11.10
2018-05-03T03:29:29.591Z,11.00
2018-05-03T03:32:14.887Z,11.00
2018-05-03T03:34:43.109Z,11.10
2018-05-03T03:37:32.108Z,11.10
2018-05-03T03:40:17.332Z,11.20
2018-05-03T03:45:44.413Z,11.10
2018-05-03T03:50:46.603Z,11.10
2018-05-03T03:53:14.116Z,11.10
2018-05-03T03:55:41.513Z,11.00
2018-05-03T03:58:08.960Z,11.00
2018-05-03T04:00:36.569Z,10.90
2018-05-03T04:03:04.016Z,10.80
2018-05-03T04:05:31.473Z,10.90
2018-05-03T04:07:58.976Z,11.00
2018-05-03T04:10:26.432Z,11.00
2018-05-03T04:12:53.906Z,11.10
2018-05-03T04:15:21.343Z,11.00
2018-05-03T04:18:00.797Z,10.90
2018-05-03T04:20:46.093Z,10.90
2018-05-03T04:23:40.523Z,10.90
2018-05-03T04:26:08.765Z,11.00
2018-05-03T04:28:36.240Z,11.00
2018-05-03T04:31:03.693Z,11.10
2018-05-03T04:33:31.166Z,11.10
2018-05-03T04:35:58.654Z,11.20
2018-05-03T04:38:26.108Z,11.20
2018-05-03T04:40:53.556Z,11.30
2018-05-03T04:43:21.785Z,11.40
2018-05-03T04:45:49.257Z,11.30
2018-05-03T04:48:16.735Z,11.40
2018-05-03T04:50:44.191Z,11.30
2018-05-03T04:53:12.422Z,11.20
2018-05-03T04:55:40.016Z,11.20
2018-05-03T04:58:07.468Z,11.10
2018-05-03T05:00:34.919Z,11.20
2018-05-03T05:03:02.373Z,11.20
2018-05-03T05:05:29.828Z,11.30
2018-05-03T05:07:57.287Z,11.20
2018-05-03T05:10:24.807Z,11.20
2018-05-03T05:12:52.204Z,11.20
2018-05-03T05:15:19.690Z,11.20
2018-05-03T05:17:47.986Z,11.10
2018-05-03T05:20:15.372Z,11.10
2018-05-03T05:22:42.831Z,11.00
2018-05-03T05:25:10.281Z,11.00
2018-05-03T05:27:37.735Z,11.10
2018-05-03T05:30:05.184Z,11.20
2018-05-03T05:32:32.663Z,11.20
2018-05-03T05:35:00.110Z,11.30
2018-05-03T05:37:27.569Z,11.30
2018-05-03T05:39:55.037Z,11.30
2018-05-03T05:42:22.471Z,11.30
2018-05-03T05:44:49.952Z,11.30
2018-05-03T05:47:17.390Z,11.40
2018-05-03T05:49:44.847Z,11.50
2018-05-03T05:52:12.304Z,11.50
2018-05-03T05:54:39.755Z,11.50
2018-05-03T05:57:07.196Z,11.50
2018-05-03T05:59:34.657Z,11.50
2018-05-03T06:02:02.859Z,11.40
2018-05-03T06:04:30.331Z,11.40
2018-05-03T06:06:57.772Z,11.40
2018-05-03T06:09:25.249Z,11.40
2018-05-03T06:11:52.704Z,11.40
2018-05-03T06:14:20.150Z,11.40
2018-05-03T06:16:47.596Z,11.50
2018-05-03T06:19:15.069Z,11.60
2018-05-03T06:21:42.519Z,11.70
2018-05-03T06:24:09.977Z,11.80
2018-05-03T06:26:37.419Z,11.70
2018-05-03T06:29:04.873Z,11.80
2018-05-03T06:31:32.336Z,11.80
2018-05-03T06:33:59.793Z,11.90
2018-05-03T06:36:27.237Z,11.90
2018-05-03T06:38:54.777Z,12.00
2018-05-03T06:41:22.143Z,12.10
2018-05-03T06:43:49.608Z,12.10
2018-05-03T06:46:17.055Z,12.00
2018-05-03T06:48:44.509Z,12.00
2018-05-03T06:51:12.726Z,12.20
2018-05-03T06:53:40.176Z,12.20
2018-05-03T06:56:07.634Z,12.20
2018-05-03T06:58:35.119Z,12.20
2018-05-03T07:01:02.534Z,12.20
2018-05-03T07:03:29.972Z,12.20
2018-05-03T07:05:58.204Z,12.30
2018-05-03T07:08:25.648Z,12.30
2018-05-03T07:10:53.107Z,12.40
2018-05-03T07:13:20.559Z,12.40
2018-05-03T07:15:48.012Z,12.60
2018-05-03T07:18:15.460Z,12.50
2018-05-03T07:20:42.929Z,12.60
2018-05-03T07:23:10.379Z,12.60
2018-05-03T07:25:37.838Z,12.60
2018-05-03T07:28:05.279Z,12.70
2018-05-03T07:30:32.742Z,12.70
2018-05-03T07:33:00.188Z,12.70
2018-05-03T07:35:27.647Z,12.70
2018-05-03T07:37:55.105Z,12.80
2018-05-03T07:40:22.567Z,12.80
2018-05-03T07:42:50.048Z,12.80
2018-05-03T07:45:17.503Z,12.80
2018-05-03T07:47:44.951Z,12.80
2018-05-03T07:50:12.409Z,12.80
2018-05-03T07:52:39.872Z,12.90
2018-05-03T07:55:07.329Z,12.90
2018-05-03T07:57:34.779Z,12.90
2018-05-03T08:00:02.252Z,12.90
2018-05-03T08:02:29.701Z,12.90
2018-05-03T08:04:57.157Z,12.90
2018-05-03T08:07:24.611Z,12.90
2018-05-03T08:09:52.064Z,12.90
2018-05-03T08:12:19.532Z,12.80
2018-05-03T08:14:47.004Z,12.90
2018-05-03T08:17:14.480Z,12.90
2018-05-03T08:19:42.001Z,12.90
2018-05-03T08:22:09.456Z,12.90
2018-05-03T08:24:36.935Z,12.90
2018-05-03T08:27:04.470Z,12.90
2018-05-03T08:29:31.932Z,12.90
2018-05-03T08:31:59.422Z,12.90
2018-05-03T08:34:26.866Z,13.00
2018-05-03T08:36:54.324Z,13.00
2018-05-03T08:39:21.764Z,13.00
2018-05-03T08:41:49.228Z,13.00
2018-05-03T08:44:16.675Z,13.00
2018-05-03T08:46:44.128Z,13.00
2018-05-03T08:49:11.584Z,13.10
2018-05-03T08:51:39.051Z,13.10
2018-05-03T08:54:06.504Z,13.00
2018-05-03T08:56:33.958Z,13.00
2018-05-03T08:59:01.414Z,13.00
2018-05-03T09:01:28.936Z,13.00
2018-05-03T09:03:56.307Z,13.00
2018-05-03T09:06:23.759Z,13.00
2018-05-03T09:08:51.984Z,13.00
2018-05-03T09:11:19.438Z,13.00
2018-05-03T09:13:46.924Z,13.00
2018-05-03T09:16:15.171Z,13.10
2018-05-03T09:18:42.630Z,13.10
2018-05-03T09:21:10.085Z,13.10
2018-05-03T09:23:37.543Z,13.20
2018-05-03T09:26:04.995Z,13.20
2018-05-03T09:28:32.446Z,13.30
2018-05-03T09:30:59.903Z,13.40
2018-05-03T09:33:27.378Z,13.40
2018-05-03T09:35:54.840Z,13.50
2018-05-03T09:38:22.311Z,13.50
2018-05-03T09:40:49.767Z,13.60
2018-05-03T09:43:17.236Z,13.60
2018-05-03T09:45:44.696Z,13.60
2018-05-03T09:50:46.940Z,13.80
2018-05-03T09:53:14.475Z,13.80
2018-05-03T09:55:41.879Z,13.90
2018-05-03T09:58:09.332Z,14.10
2018-05-03T10:00:36.772Z,14.20
2018-05-03T10:03:04.243Z,14.30
2018-05-03T10:05:31.713Z,14.30
2018-05-03T10:07:59.172Z,14.40
2018-05-03T10:10:26.643Z,14.40
2018-05-03T10:12:54.900Z,14.50
2018-05-03T10:15:22.373Z,14.40
2018-05-03T10:17:49.831Z,14.40
2018-05-03T10:20:17.292Z,14.50
2018-05-03T10:22:44.746Z,14.50
2018-05-03T10:25:12.206Z,14.60
2018-05-03T10:27:40.440Z,14.60
2018-05-03T10:30:07.926Z,14.60
2018-05-03T10:32:35.363Z,14.60
2018-05-03T10:35:02.841Z,14.60
2018-05-03T10:37:30.288Z,14.70
2018-05-03T10:39:57.760Z,14.70
2018-05-03T10:42:25.208Z,14.70
2018-05-03T10:44:52.684Z,14.70
2018-05-03T10:47:20.138Z,14.60
2018-05-03T10:49:47.600Z,14.60
2018-05-03T10:52:15.058Z,14.60
2018-05-03T10:54:42.543Z,14.60
2018-05-03T10:57:09.996Z,14.70
2018-05-03T10:59:37.464Z,14.70
2018-05-03T11:02:04.927Z,14.70
2018-05-03T11:04:32.401Z,14.80
2018-05-03T11:06:59.877Z,14.90
2018-05-03T11:09:27.403Z,14.90
2018-05-03T11:11:54.852Z,15.00
2018-05-03T11:14:22.310Z,15.00
2018-05-03T11:16:49.756Z,15.10
2018-05-03T11:19:17.324Z,15.10
2018-05-03T11:21:44.789Z,15.20
2018-05-03T11:24:12.240Z,15.20
2018-05-03T11:26:39.745Z,15.20
2018-05-03T11:29:07.187Z,15.20
2018-05-03T11:31:34.715Z,15.30
2018-05-03T11:34:02.117Z,15.30
2018-05-03T11:36:29.575Z,15.40
2018-05-03T11:38:57.040Z,15.50
2018-05-03T11:41:24.487Z,15.60
2018-05-03T11:43:51.934Z,15.70
2018-05-03T11:46:19.443Z,15.70
2018-05-03T11:48:47.703Z,15.70
2018-05-03T11:51:15.163Z,15.70
2018-05-03T11:53:43.396Z,15.70
2018-05-03T11:56:10.848Z,15.70
2018-05-03T11:58:38.294Z,15.80
2018-05-03T12:01:05.754Z,15.80
2018-05-03T12:03:33.195Z,15.80
2018-05-03T12:06:00.656Z,15.80
2018-05-03T12:08:28.099Z,15.80
2018-05-03T12:10:55.556Z,15.80
2018-05-03T12:13:23.763Z,15.90
2018-05-03T12:15:51.223Z,15.90
2018-05-03T12:18:18.673Z,16.00
2018-05-03T12:20:46.127Z,16.00
2018-05-03T12:23:13.566Z,16.00
2018-05-03T12:25:41.029Z,16.00
2018-05-03T12:28:08.488Z,16.00
2018-05-03T12:30:35.931Z,16.00
2018-05-03T12:33:03.386Z,16.00
2018-05-03T12:35:30.846Z,16.00
2018-05-03T12:37:58.314Z,16.00
2018-05-03T12:40:25.792Z,16.00
2018-05-03T12:42:53.247Z,16.10
2018-05-03T12:45:21.909Z,16.10
2018-05-03T12:47:50.119Z,16.20
2018-05-03T12:50:17.585Z,16.20
2018-05-03T12:52:45.045Z,16.20
2018-05-03T12:55:12.507Z,16.20
2018-05-03T12:57:39.974Z,16.30
2018-05-03T13:00:07.446Z,16.30
2018-05-03T13:02:34.937Z,16.30
2018-05-03T13:05:02.405Z,16.40
2018-05-03T13:07:29.879Z,16.40
2018-05-03T13:09:57.408Z,16.40
2018-05-03T13:12:24.941Z,16.40
2018-05-03T13:14:52.427Z,16.50
2018-05-03T13:17:19.981Z,16.50
2018-05-03T13:19:47.423Z,16.60
2018-05-03T13:22:15.675Z,16.70
2018-05-03T13:24:43.119Z,16.70
2018-05-03T13:27:10.584Z,16.70
2018-05-03T13:29:38.255Z,16.80
2018-05-03T13:32:05.708Z,16.80
2018-05-03T13:34:33.295Z,16.80
2018-05-03T13:37:00.708Z,16.80
2018-05-03T13:39:28.431Z,16.80
2018-05-03T13:41:55.885Z,16.90
2018-05-03T13:44:24.280Z,16.90
2018-05-03T13:46:51.735Z,16.90
2018-05-03T13:49:19.194Z,17.00
2018-05-03T13:51:46.644Z,17.00
2018-05-03T13:54:14.186Z,17.10
2018-05-03T13:56:42.392Z,17.00
2018-05-03T13:59:09.851Z,17.00
2018-05-03T14:01:37.286Z,17.10
2018-05-03T14:04:04.743Z,17.10
2018-05-03T14:06:32.214Z,17.20
2018-05-03T14:08:59.703Z,17.30
2018-05-03T14:11:27.207Z,17.30
2018-05-03T14:13:55.427Z,17.40
2018-05-03T14:16:23.671Z,17.40
2018-05-03T14:18:51.167Z,17.40
2018-05-03T14:21:18.620Z,17.40
2018-05-03T14:23:46.076Z,17.40
2018-05-03T14:26:13.515Z,17.30
2018-05-03T14:28:40.979Z,17.30
2018-05-03T14:31:08.422Z,17.20
2018-05-03T14:33:36.294Z,17.10
2018-05-03T14:36:03.734Z,17.10
2018-05-03T14:38:31.184Z,17.00
2018-05-03T14:40:59.575Z,16.90
2018-05-03T14:43:27.085Z,16.90
2018-05-03T14:45:54.601Z,17.00
2018-05-03T14:48:22.080Z,16.90
2018-05-03T14:50:49.596Z,17.00
2018-05-03T14:53:17.858Z,17.10
2018-05-03T14:55:46.104Z,17.10
2018-05-03T14:58:13.564Z,17.00
2018-05-03T15:00:41.052Z,17.00
2018-05-03T15:03:08.532Z,17.00
2018-05-03T15:05:36.025Z,17.00
2018-05-03T15:08:03.528Z,17.00
2018-05-03T15:10:31.842Z,17.10
2018-05-03T15:13:00.037Z,17.00
2018-05-03T15:15:27.557Z,17.00
2018-05-03T15:17:55.826Z,17.00
2018-05-03T15:20:24.073Z,16.90
2018-05-03T15:22:51.552Z,16.90
2018-05-03T15:25:19.801Z,16.90
2018-05-03T15:27:47.286Z,16.90
2018-05-03T15:30:15.559Z,16.90
2018-05-03T15:32:45.732Z,16.90
2018-05-03T15:35:13.290Z,16.90
2018-05-03T15:37:40.896Z,16.90
2018-05-03T15:40:09.206Z,17.00
2018-05-03T15:42:36.669Z,17.00
2018-05-03T15:45:04.177Z,17.10
2018-05-03T15:47:31.649Z,17.20
2018-05-03T15:49:59.981Z,17.20
2018-05-03T15:52:28.195Z,17.30
2018-05-03T15:54:55.694Z,17.20
2018-05-03T15:57:23.153Z,17.30
2018-05-03T15:59:50.637Z,17.20
2018-05-03T16:02:18.371Z,17.30
2018-05-03T16:04:45.876Z,17.30
2018-05-03T16:07:13.378Z,17.30
2018-05-03T16:09:40.828Z,17.30
2018-05-03T16:12:09.032Z,17.20
2018-05-03T16:14:36.485Z,17.20
2018-05-03T16:17:03.918Z,17.10
2018-05-03T16:19:32.140Z,17.10
2018-05-03T16:21:59.587Z,17.10
2018-05-03T16:24:27.092Z,17.10
2018-05-03T16:26:54.541Z,17.10
2018-05-03T16:29:21.985Z,17.10
2018-05-03T16:31:49.461Z,17.00
2018-05-03T16:34:16.934Z,17.00
2018-05-03T16:36:45.155Z,16.90
2018-05-03T16:39:12.599Z,16.90
2018-05-03T16:41:40.044Z,16.90
2018-05-03T16:44:07.480Z,16.80
2018-05-03T16:46:35.708Z,16.80
2018-05-03T16:49:03.143Z,16.80
2018-05-03T16:51:30.601Z,16.80
2018-05-03T16:53:58.043Z,16.80
2018-05-03T16:56:25.505Z,16.80
2018-05-03T16:58:52.952Z,16.80
2018-05-03T17:01:20.486Z,16.80
2018-05-03T17:03:47.920Z,16.80
2018-05-03T17:06:15.367Z,16.80
2018-05-03T17:08:42.810Z,16.70
2018-05-03T17:11:10.273Z,16.80
2018-05-03T17:13:37.713Z,16.80
2018-05-03T17:16:05.175Z,16.80
2018-05-03T17:18:32.600Z,16.80
2018-05-03T17:21:00.831Z,16.80
2018-05-03T17:23:28.270Z,16.80
2018-05-03T17:25:55.719Z,16.80
2018-05-03T17:28:23.264Z,16.70
2018-05-03T17:30:50.736Z,16.70
2018-05-03T17:33:18.174Z,16.70
2018-05-03T17:35:45.639Z,16.60
2018-05-03T17:38:13.061Z,16.60
2018-05-03T17:40:41.296Z,16.50
2018-05-03T17:43:08.737Z,16.50
2018-05-03T17:45:36.186Z,16.40
2018-05-03T17:48:03.642Z,16.40
2018-05-03T17:50:31.139Z,16.40
2018-05-03T17:52:58.585Z,16.30
2018-05-03T17:55:26.024Z,16.30
2018-05-03T17:57:53.486Z,16.30
2018-05-03T18:00:20.922Z,16.20
2018-05-03T18:02:48.374Z,16.20
2018-05-03T18:05:15.827Z,16.20
2018-05-03T18:07:44.049Z,16.10
2018-05-03T18:10:11.591Z,16.10
2018-05-03T18:12:39.253Z,16.10
2018-05-03T18:15:06.699Z,16.10
2018-05-03T18:17:34.143Z,16.00
2018-05-03T18:20:02.543Z,16.00
2018-05-03T18:22:29.992Z,16.00
2018-05-03T18:24:57.436Z,16.00
2018-05-03T18:27:25.640Z,15.90
2018-05-03T18:29:53.249Z,15.90
2018-05-03T18:32:20.723Z,15.90
2018-05-03T18:34:49.054Z,15.80
2018-05-03T18:37:16.537Z,15.80
2018-05-03T18:39:44.911Z,15.80
2018-05-03T18:42:13.183Z,15.80
2018-05-03T18:44:40.652Z,15.80
2018-05-03T18:47:08.891Z,15.70
2018-05-03T18:49:36.363Z,15.70
2018-05-03T18:52:03.823Z,15.70
2018-05-03T18:54:31.323Z,15.70
2018-05-03T18:56:59.551Z,15.60
2018-05-03T18:59:26.998Z,15.60
2018-05-03T19:01:54.460Z,15.60
2018-05-03T19:04:21.937Z,15.60
2018-05-03T19:06:49.423Z,15.60
2018-05-03T19:09:17.675Z,15.50
2018-05-03T19:11:45.159Z,15.50
2018-05-03T19:14:12.572Z,15.50
2018-05-03T19:16:40.085Z,15.50
2018-05-03T19:19:07.477Z,15.40
2018-05-03T19:21:34.934Z,15.40
2018-05-03T19:24:02.392Z,15.30
2018-05-03T19:26:29.858Z,15.40
2018-05-03T19:28:57.311Z,15.40
2018-05-03T19:31:24.756Z,15.30
2018-05-03T19:33:52.223Z,15.30
2018-05-03T19:36:19.722Z,15.30
2018-05-03T19:38:47.200Z,15.40
2018-05-03T19:41:14.643Z,15.30
2018-05-03T19:43:42.860Z,15.30
2018-05-03T19:46:10.330Z,15.30
2018-05-03T19:48:37.784Z,15.20
2018-05-03T19:51:06.327Z,15.20
2018-05-03T19:53:33.805Z,15.20
2018-05-03T19:56:01.264Z,15.10
2018-05-03T19:58:28.726Z,15.10
2018-05-03T20:00:56.481Z,15.00
2018-05-03T20:03:23.913Z,14.90
2018-05-03T20:05:52.190Z,14.80
2018-05-03T20:08:20.486Z,14.70
2018-05-03T20:10:58.690Z,14.70
2018-05-03T20:13:26.130Z,14.70
2018-05-03T20:15:54.344Z,14.60
2018-05-03T20:18:21.795Z,14.60
2018-05-03T20:20:49.259Z,14.60
2018-05-03T20:23:16.712Z,14.60
2018-05-03T20:25:44.170Z,14.50
2018-05-03T20:28:11.608Z,14.60
2018-05-03T20:30:39.072Z,14.60
2018-05-03T20:33:06.511Z,14.60
2018-05-03T20:35:34.728Z,14.60
2018-05-03T20:38:02.172Z,14.60
2018-05-03T20:40:29.639Z,14.60
2018-05-03T20:42:57.091Z,14.70
2018-05-03T20:45:24.544Z,14.70
2018-05-03T20:47:51.986Z,14.70
2018-05-03T20:50:19.472Z,14.70
2018-05-03T20:52:46.935Z,14.70
2018-05-03T20:55:14.396Z,14.70
2018-05-03T20:57:41.932Z,14.70
2018-05-03T21:00:09.323Z,14.60
2018-05-03T21:02:36.767Z,14.60
2018-05-03T21:05:04.220Z,14.60
2018-05-03T21:07:31.667Z,14.50
2018-05-03T21:09:59.128Z,14.40
2018-05-03T21:12:26.571Z,14.40
2018-05-03T21:14:54.022Z,14.30
2018-05-03T21:17:21.469Z,14.30
2018-05-03T21:19:48.903Z,14.30
2018-05-03T21:22:17.150Z,14.20
2018-05-03T21:24:44.584Z,14.30
2018-05-03T21:27:12.044Z,14.20
2018-05-03T21:29:39.478Z,14.20
2018-05-03T21:32:06.925Z,14.20
2018-05-03T21:34:35.126Z,14.20
2018-05-03T21:37:02.578Z,14.20
2018-05-03T21:39:30.028Z,14.20
2018-05-03T21:41:57.489Z,14.30
2018-05-03T21:44:24.918Z,14.20
2018-05-03T21:46:53.141Z,14.20
2018-05-03T21:49:20.578Z,14.20
2018-05-03T21:51:48.037Z,14.20
2018-05-03T21:54:15.478Z,14.20
2018-05-03T21:56:42.936Z,14.20
2018-05-03T21:59:10.389Z,14.30
2018-05-03T22:01:37.873Z,14.30
2018-05-03T22:04:05.319Z,14.30
2018-05-03T22:06:32.805Z,14.30
2018-05-03T22:09:00.256Z,14.30
2018-05-03T22:11:27.714Z,14.30
2018-05-03T22:13:55.217Z,14.30
2018-05-03T22:16:22.607Z,14.20
2018-05-03T22:18:50.039Z,14.20
2018-05-03T22:21:18.279Z,14.20
2018-05-03T22:23:45.726Z,14.20
2018-05-03T22:26:13.171Z,14.20
2018-05-03T22:28:40.619Z,14.20
2018-05-03T22:31:08.048Z,14.20
2018-05-03T22:33:35.924Z,14.20
2018-05-03T22:36:03.374Z,14.20
2018-05-03T22:38:31.607Z,14.00
2018-05-03T22:40:59.070Z,14.00
2018-05-03T22:43:26.533Z,14.00
2018-05-03T22:45:55.500Z,14.00
2018-05-03T22:48:22.949Z,14.00
2018-05-03T22:50:50.375Z,14.10
2018-05-03T22:53:17.838Z,14.10
2018-05-03T22:55:45.284Z,14.00
2018-05-03T22:58:13.507Z,13.90
2018-05-03T23:00:40.959Z,13.90
2018-05-03T23:03:08.407Z,13.90
2018-05-03T23:05:35.852Z,13.80
2018-05-03T23:08:03.305Z,13.80
2018-05-03T23:10:30.755Z,13.80
2018-05-03T23:12:58.200Z,13.80
2018-05-03T23:15:26.418Z,13.90
2018-05-03T23:17:53.879Z,13.80
2018-05-03T23:20:21.318Z,13.90
2018-05-03T23:22:48.772Z,13.90
2018-05-03T23:25:16.220Z,13.90
2018-05-03T23:27:43.663Z,13.90
2018-05-03T23:30:11.864Z,13.80
2018-05-03T23:32:39.300Z,13.80
2018-05-03T23:35:07.516Z,13.80
2018-05-03T23:37:34.956Z,13.80
2018-05-03T23:40:02.405Z,13.80
2018-05-03T23:42:29.847Z,13.70
2018-05-03T23:44:57.291Z,13.70
2018-05-03T23:47:25.499Z,13.70
2018-05-03T23:49:52.957Z,13.70
2018-05-03T23:52:20.398Z,13.70
2018-05-03T23:54:47.864Z,13.70
2018-05-03T23:57:15.313Z,13.70
2018-05-03T23:59:42.771Z,13.80
